This is the latest recevied weather packets stored in our database for station/object IT9DBI-3. If no packets are shown the sender has not sent any weather packets the latest 10 day(s).
| Time | Temp. | Humidity | Pressure | Rain* | Wind** | Luminosity | Snow |
|---|---|---|---|---|---|---|---|
| 1777400727 | 16.11° C | 98% | 1014.9 hPa | - | - | - | - |
| 1777399526 | 16.67° C | 96% | 1014.7 hPa | - | - | - | - |
| 1777398325 | 17.78° C | 90% | 1014.6 hPa | - | - | - | - |
| 1777397123 | 18.89° C | 82% | 1014.4 hPa | - | - | - | - |
| 1777395922 | 21.11° C | 69% | 1014.2 hPa | - | - | - | - |
| 1777394721 | 22.22° C | 65% | 1014.1 hPa | - | - | - | - |
| 1777393519 | 22.78° C | 62% | 1014.1 hPa | - | - | - | - |
| 1777392318 | 23.33° C | 58% | 1014.1 hPa | - | - | - | - |
| 1777391117 | 22.78° C | 61% | 1014.2 hPa | - | - | - | - |
| 1777389916 | 24.44° C | 56% | 1014.1 hPa | - | - | - | - |
| 1777388714 | 23.89° C | 57% | 1014 hPa | - | - | - | - |
| 1777387509 | 24.44° C | 58% | 1013.9 hPa | - | - | - | - |
| 1777386308 | 24.44° C | 55% | 1014 hPa | - | - | - | - |
| 1777385106 | 25° C | 54% | 1014 hPa | - | - | - | - |
| 1777383905 | 23.89° C | 57% | 1014.2 hPa | - | - | - | - |
| 1777382703 | 23.89° C | 58% | 1014.4 hPa | - | - | - | - |
| 1777381502 | 22.78° C | 62% | 1014.6 hPa | - | - | - | - |
| 1777380301 | 21.11° C | 66% | 1014.9 hPa | - | - | - | - |
| 1777379098 | 21.67° C | 63% | 1014.9 hPa | - | - | - | - |
| 1777377897 | 21.11° C | 63% | 1015 hPa | - | - | - | - |
| 1777376696 | 21.11° C | 59% | 1015.1 hPa | - | - | - | - |
| 1777375494 | 21.11° C | 63% | 1015.1 hPa | - | - | - | - |
| 1777374293 | 21.11° C | 67% | 1015.2 hPa | - | - | - | - |
| 1777373092 | 20.56° C | 71% | 1015.5 hPa | - | - | - | - |
| 1777371891 | 20° C | 73% | 1015.7 hPa | - | - | - | - |
* Rain since midnight (hover to see other rain measurements)
** Current wind speed in m/s (hover to see current wind gust speed)